createdAt,value
2017-07-27T00:01:32.585Z,8.40
2017-07-27T00:03:59.440Z,7.90
2017-07-27T00:06:26.284Z,7.73
2017-07-27T00:08:53.198Z,7.50
2017-07-27T00:11:20.097Z,7.73
2017-07-27T00:13:46.947Z,8.03
2017-07-27T00:16:13.888Z,7.40
2017-07-27T00:18:40.727Z,7.70
2017-07-27T00:21:07.584Z,7.43
2017-07-27T00:23:34.493Z,6.90
2017-07-27T00:26:01.421Z,6.40
2017-07-27T00:28:28.274Z,6.33
2017-07-27T00:30:55.201Z,7.37
2017-07-27T00:33:22.143Z,8.10
2017-07-27T00:35:49.132Z,8.87
2017-07-27T00:38:16.045Z,7.77
2017-07-27T00:40:42.884Z,8.17
2017-07-27T00:43:09.782Z,8.00
2017-07-27T00:45:36.713Z,7.23
2017-07-27T00:48:03.587Z,9.50
2017-07-27T00:50:30.501Z,7.50
2017-07-27T00:52:57.401Z,8.00
2017-07-27T00:55:24.224Z,8.23
2017-07-27T00:57:51.146Z,7.37
2017-07-27T01:00:17.997Z,7.40
2017-07-27T01:02:44.820Z,7.03
2017-07-27T01:05:11.717Z,8.27
2017-07-27T01:07:39.389Z,7.00
2017-07-27T01:10:06.264Z,7.47
2017-07-27T01:12:33.201Z,6.90
2017-07-27T01:15:00.068Z,7.27
2017-07-27T01:17:26.986Z,7.43
2017-07-27T01:19:53.898Z,7.53
2017-07-27T01:22:21.462Z,6.73
2017-07-27T01:24:49.047Z,6.83
2017-07-27T01:27:15.981Z,7.70
2017-07-27T01:29:42.811Z,7.17
2017-07-27T01:32:09.671Z,6.40
2017-07-27T01:34:36.620Z,6.40
2017-07-27T01:37:03.560Z,7.30
2017-07-27T01:39:31.127Z,6.97
2017-07-27T01:41:57.972Z,7.73
2017-07-27T01:44:24.905Z,7.13
2017-07-27T01:46:52.471Z,7.13
2017-07-27T01:49:20.035Z,7.77
2017-07-27T01:51:46.973Z,6.67
2017-07-27T01:54:13.816Z,7.40
2017-07-27T01:56:40.727Z,6.00
2017-07-27T01:59:07.627Z,7.90
2017-07-27T02:01:34.564Z,7.33
2017-07-27T02:04:01.491Z,7.50
2017-07-27T02:06:28.326Z,7.43
2017-07-27T02:08:55.166Z,7.20
2017-07-27T02:11:22.108Z,8.00
2017-07-27T02:13:48.954Z,7.97
2017-07-27T02:16:15.804Z,9.30
2017-07-27T02:18:42.704Z,9.03
2017-07-27T02:21:09.627Z,8.20
2017-07-27T02:23:36.479Z,9.00
2017-07-27T02:26:03.319Z,8.80
2017-07-27T02:28:30.211Z,9.87
2017-07-27T02:30:57.159Z,8.87
2017-07-27T02:33:24.068Z,8.93
2017-07-27T02:35:51.023Z,11.50
2017-07-27T02:38:17.856Z,11.50
2017-07-27T02:40:44.687Z,10.57
2017-07-27T02:43:11.595Z,9.40
2017-07-27T02:45:38.503Z,9.87
2017-07-27T02:48:05.447Z,8.50
2017-07-27T02:50:32.292Z,10.90
2017-07-27T02:52:59.142Z,10.80
2017-07-27T02:55:26.116Z,10.93
2017-07-27T02:57:52.981Z,10.50
2017-07-27T03:00:20.672Z,11.13
2017-07-27T03:02:47.494Z,12.37
2017-07-27T03:05:15.067Z,12.20
2017-07-27T03:07:41.978Z,12.60
2017-07-27T03:10:08.873Z,12.83
2017-07-27T03:12:35.775Z,11.90
2017-07-27T03:15:02.711Z,12.50
2017-07-27T03:17:29.551Z,11.30
2017-07-27T03:19:56.371Z,12.43
2017-07-27T03:22:23.285Z,10.47
2017-07-27T03:24:50.143Z,13.00
2017-07-27T03:27:16.999Z,10.83
2017-07-27T03:29:43.924Z,11.43
2017-07-27T03:32:10.750Z,9.47
2017-07-27T03:34:37.598Z,11.23
2017-07-27T03:37:04.507Z,12.70
2017-07-27T03:39:31.428Z,11.03
2017-07-27T03:41:58.415Z,10.83
2017-07-27T03:44:25.290Z,11.80
2017-07-27T03:46:52.217Z,9.53
2017-07-27T03:49:19.790Z,11.03
2017-07-27T03:51:46.632Z,11.40
2017-07-27T03:54:19.960Z,9.83
2017-07-27T03:56:59.998Z,9.47
2017-07-27T03:59:40.415Z,8.57
2017-07-27T04:02:20.702Z,9.37
2017-07-27T04:04:47.620Z,9.30
2017-07-27T04:07:14.475Z,8.40
2017-07-27T04:09:43.567Z,8.83
2017-07-27T04:12:20.471Z,8.87
2017-07-27T04:14:48.104Z,10.70
2017-07-27T04:17:14.975Z,9.40
2017-07-27T04:19:41.923Z,8.97
2017-07-27T04:22:08.839Z,9.67
2017-07-27T04:24:37.555Z,10.67
2017-07-27T04:27:06.621Z,9.40
2017-07-27T04:29:36.823Z,10.53
2017-07-27T04:32:07.190Z,10.23
2017-07-27T04:34:48.851Z,9.83
2017-07-27T04:37:30.701Z,11.43
2017-07-27T04:40:17.504Z,11.53
2017-07-27T04:42:58.869Z,11.00
2017-07-27T04:45:39.669Z,11.40
2017-07-27T04:48:12.649Z,10.37
2017-07-27T04:50:43.005Z,10.87
2017-07-27T04:53:10.095Z,10.33
2017-07-27T04:55:37.248Z,12.07
2017-07-27T04:58:04.635Z,13.40
2017-07-27T05:00:31.543Z,11.80
2017-07-27T05:02:58.444Z,10.80
2017-07-27T05:05:25.409Z,11.43
2017-07-27T05:07:56.423Z,10.87
2017-07-27T05:10:24.556Z,11.20
2017-07-27T05:13:04.135Z,11.20
2017-07-27T05:15:31.796Z,12.10
2017-07-27T05:17:59.555Z,10.10
2017-07-27T05:20:26.523Z,9.43
2017-07-27T05:23:01.951Z,10.37
2017-07-27T05:25:29.598Z,9.80
2017-07-27T05:27:57.239Z,8.40
2017-07-27T05:30:24.617Z,9.77
2017-07-27T05:32:52.202Z,9.70
2017-07-27T05:35:19.045Z,9.73
2017-07-27T05:37:48.288Z,8.27
2017-07-27T05:40:15.159Z,9.77
2017-07-27T05:42:42.843Z,9.33
2017-07-27T05:45:09.700Z,9.13
2017-07-27T05:47:38.208Z,9.30
2017-07-27T05:50:05.122Z,9.80
2017-07-27T05:52:32.200Z,10.20
2017-07-27T05:54:59.098Z,8.87
2017-07-27T05:57:26.750Z,9.17
2017-07-27T05:59:54.323Z,8.93
2017-07-27T06:02:23.317Z,8.63
2017-07-27T06:04:50.998Z,9.13
2017-07-27T06:07:19.343Z,7.60
2017-07-27T06:09:50.041Z,10.93
2017-07-27T06:12:22.568Z,8.13
2017-07-27T06:15:04.658Z,9.63
2017-07-27T06:17:45.719Z,8.70
2017-07-27T06:20:16.229Z,9.80
2017-07-27T06:22:44.540Z,10.03
2017-07-27T06:25:14.598Z,10.57
2017-07-27T06:27:43.934Z,9.67
2017-07-27T06:30:14.349Z,9.10
2017-07-27T06:32:43.027Z,10.13
2017-07-27T06:35:11.932Z,9.10
2017-07-27T06:37:40.275Z,11.87
2017-07-27T06:42:58.001Z,10.67
2017-07-27T06:45:31.226Z,10.63
2017-07-27T06:48:02.308Z,10.40
2017-07-27T06:50:33.669Z,10.37
2017-07-27T06:53:01.107Z,10.30
2017-07-27T06:55:27.943Z,9.43
2017-07-27T06:57:58.013Z,10.10
2017-07-27T07:00:25.162Z,10.60
2017-07-27T07:02:54.997Z,11.30
2017-07-27T07:05:22.699Z,10.67
2017-07-27T07:07:49.549Z,11.10
2017-07-27T07:10:16.455Z,11.47
2017-07-27T07:12:43.295Z,11.67
2017-07-27T07:15:10.156Z,9.70
2017-07-27T07:17:37.152Z,12.10
2017-07-27T07:20:04.078Z,11.03
2017-07-27T07:22:30.929Z,9.47
2017-07-27T07:24:57.789Z,9.73
2017-07-27T07:27:24.812Z,9.90
2017-07-27T07:29:51.715Z,9.10
2017-07-27T07:32:18.612Z,8.03
2017-07-27T07:34:45.476Z,8.00
2017-07-27T07:37:12.383Z,6.97
2017-07-27T07:39:39.229Z,6.57
2017-07-27T07:42:06.064Z,5.33
2017-07-27T07:44:32.972Z,6.23
2017-07-27T07:47:00.573Z,5.83
2017-07-27T07:49:27.519Z,6.60
2017-07-27T07:51:54.364Z,6.20
2017-07-27T07:54:21.224Z,5.10
2017-07-27T07:56:48.204Z,6.03
2017-07-27T07:59:15.049Z,5.27
2017-07-27T08:01:42.711Z,4.80
2017-07-27T08:04:10.364Z,4.70
2017-07-27T08:06:37.211Z,4.77
2017-07-27T08:09:16.189Z,4.80
2017-07-27T08:11:43.040Z,5.23
2017-07-27T08:14:10.035Z,4.37
2017-07-27T08:16:36.871Z,4.70
2017-07-27T08:19:03.805Z,5.33
2017-07-27T08:21:30.677Z,6.17
2017-07-27T08:23:58.269Z,5.20
2017-07-27T08:26:25.195Z,6.00
2017-07-27T08:28:52.834Z,6.50
2017-07-27T08:31:19.692Z,4.93
2017-07-27T08:33:47.430Z,5.17
2017-07-27T08:36:14.370Z,4.27
2017-07-27T08:38:41.302Z,5.70
2017-07-27T08:41:08.277Z,4.40
2017-07-27T08:43:35.132Z,4.33
2017-07-27T08:46:02.788Z,4.93
2017-07-27T08:48:29.659Z,4.93
2017-07-27T08:50:57.380Z,4.53
2017-07-27T08:53:24.301Z,4.07
2017-07-27T08:55:51.141Z,4.60
2017-07-27T08:58:18.148Z,4.47
2017-07-27T09:00:45.814Z,3.70
2017-07-27T09:03:12.731Z,4.43
2017-07-27T09:05:39.693Z,3.43
2017-07-27T09:08:06.695Z,4.03
2017-07-27T09:10:33.610Z,4.20
2017-07-27T09:13:00.472Z,3.80
2017-07-27T09:15:27.424Z,4.60
2017-07-27T09:17:54.329Z,4.60
2017-07-27T09:20:21.925Z,4.50
2017-07-27T09:22:48.963Z,4.70
2017-07-27T09:25:15.836Z,4.30
2017-07-27T09:27:42.752Z,4.87
2017-07-27T09:30:09.629Z,4.67
2017-07-27T09:32:36.568Z,6.20
2017-07-27T09:35:03.494Z,5.50
2017-07-27T09:37:30.349Z,5.30
2017-07-27T09:39:57.243Z,5.57
2017-07-27T09:42:24.174Z,6.20
2017-07-27T09:44:51.051Z,6.40
2017-07-27T09:47:18.666Z,6.43
2017-07-27T09:49:45.610Z,6.30
2017-07-27T09:52:12.500Z,5.57
2017-07-27T09:54:40.121Z,5.83
2017-07-27T09:57:27.108Z,6.40
2017-07-27T09:59:54.086Z,5.60
2017-07-27T10:02:20.975Z,5.60
2017-07-27T10:04:48.654Z,5.60
2017-07-27T10:07:15.539Z,5.87
2017-07-27T10:09:42.520Z,5.80
2017-07-27T10:12:10.224Z,5.30
2017-07-27T10:14:37.161Z,5.83
2017-07-27T10:17:04.040Z,5.50
2017-07-27T10:19:30.952Z,5.97
2017-07-27T10:21:57.881Z,5.43
2017-07-27T10:24:25.474Z,7.20
2017-07-27T10:26:52.332Z,7.43
2017-07-27T10:29:19.252Z,6.00
2017-07-27T10:31:46.106Z,6.57
2017-07-27T10:34:12.999Z,6.70
2017-07-27T10:36:39.947Z,5.40
2017-07-27T10:39:06.815Z,5.80
2017-07-27T10:41:34.466Z,8.20
2017-07-27T10:44:02.152Z,6.60
2017-07-27T10:46:29.093Z,6.40
2017-07-27T10:48:56.036Z,5.00
2017-07-27T10:51:23.010Z,6.20
2017-07-27T10:53:49.875Z,5.33
2017-07-27T10:56:16.772Z,5.43
2017-07-27T10:58:43.733Z,5.60
2017-07-27T11:01:10.598Z,5.20
2017-07-27T11:03:37.540Z,6.03
2017-07-27T11:06:04.479Z,5.70
2017-07-27T11:08:31.423Z,5.77
2017-07-27T11:16:42.935Z,6.13
2017-07-27T11:19:09.836Z,6.10
2017-07-27T11:21:37.183Z,5.87
2017-07-27T11:24:06.130Z,6.00
2017-07-27T11:26:33.117Z,5.43
2017-07-27T11:29:00.388Z,5.90
2017-07-27T11:31:31.157Z,5.23
2017-07-27T11:33:58.788Z,5.50
2017-07-27T11:36:26.020Z,5.70
2017-07-27T11:38:57.981Z,6.23
2017-07-27T11:41:25.008Z,6.13
2017-07-27T11:43:52.014Z,5.20
2017-07-27T11:46:23.277Z,5.67
2017-07-27T11:49:00.135Z,5.27
2017-07-27T11:51:31.118Z,5.77
2017-07-27T11:54:00.790Z,5.73
2017-07-27T11:56:28.550Z,5.53
2017-07-27T11:58:55.535Z,5.40
2017-07-27T12:01:22.471Z,5.23
2017-07-27T12:03:50.131Z,5.37
2017-07-27T12:06:17.795Z,5.67
2017-07-27T12:08:44.903Z,5.10
2017-07-27T12:11:11.781Z,5.60
2017-07-27T12:13:39.589Z,4.93
2017-07-27T12:16:06.530Z,5.07
2017-07-27T12:18:33.502Z,5.10
2017-07-27T12:21:15.072Z,4.60
2017-07-27T12:23:54.453Z,4.30
2017-07-27T12:26:22.064Z,3.93
2017-07-27T12:28:49.011Z,4.60
2017-07-27T12:31:16.791Z,4.40
2017-07-27T12:33:44.455Z,5.87
2017-07-27T12:36:11.475Z,4.27
2017-07-27T12:38:38.424Z,4.93
2017-07-27T12:41:05.312Z,4.07
2017-07-27T12:43:32.259Z,4.87
2017-07-27T12:45:59.156Z,4.80
2017-07-27T12:48:26.039Z,4.87
2017-07-27T12:50:53.027Z,4.50
2017-07-27T12:53:20.702Z,4.90
2017-07-27T12:55:48.306Z,4.60
2017-07-27T12:58:15.226Z,4.47
2017-07-27T13:00:42.095Z,4.43
2017-07-27T13:03:09.040Z,5.10
2017-07-27T13:05:35.874Z,4.90
2017-07-27T13:08:02.716Z,4.63
2017-07-27T13:10:29.691Z,5.13
2017-07-27T13:12:56.656Z,4.20
2017-07-27T13:15:23.609Z,5.03
2017-07-27T13:17:50.497Z,4.17
2017-07-27T13:20:17.398Z,4.67
2017-07-27T13:22:44.311Z,5.10
2017-07-27T13:25:11.211Z,8.10
2017-07-27T13:27:40.025Z,3.13
2017-07-27T13:30:06.897Z,4.13
2017-07-27T13:32:33.868Z,3.73
2017-07-27T13:35:00.790Z,4.47
2017-07-27T13:37:27.728Z,4.47
2017-07-27T13:39:54.687Z,4.63
2017-07-27T13:42:21.607Z,4.07
2017-07-27T13:44:48.473Z,4.00
2017-07-27T13:47:15.397Z,3.77
2017-07-27T13:49:42.355Z,3.53
2017-07-27T13:52:09.324Z,3.93
2017-07-27T13:54:36.187Z,3.83
2017-07-27T13:57:03.021Z,4.00
2017-07-27T13:59:29.932Z,3.83
2017-07-27T14:01:56.828Z,4.10
2017-07-27T14:04:23.744Z,3.77
2017-07-27T14:06:50.587Z,3.60
2017-07-27T14:09:17.414Z,3.67
2017-07-27T14:11:44.371Z,3.27
2017-07-27T14:14:11.224Z,3.77
2017-07-27T14:16:38.132Z,3.47
2017-07-27T14:19:04.988Z,2.53
2017-07-27T14:21:31.921Z,2.33
2017-07-27T14:23:58.827Z,2.90
2017-07-27T14:26:25.684Z,2.67
2017-07-27T14:28:53.374Z,2.10
2017-07-27T14:31:20.222Z,2.70
2017-07-27T14:33:47.089Z,1.97
2017-07-27T14:36:14.137Z,1.97
2017-07-27T14:38:41.111Z,1.80
2017-07-27T14:41:08.131Z,2.00
2017-07-27T14:43:35.016Z,2.10
2017-07-27T14:46:01.919Z,2.10
2017-07-27T14:48:28.888Z,1.73
2017-07-27T14:50:55.886Z,2.10
2017-07-27T14:53:22.756Z,1.60
2017-07-27T14:55:49.589Z,1.53
2017-07-27T14:58:16.504Z,1.60
2017-07-27T15:00:44.123Z,1.80
2017-07-27T15:03:11.037Z,2.10
2017-07-27T15:05:37.876Z,1.60
2017-07-27T15:08:04.793Z,1.97
2017-07-27T15:10:31.663Z,1.60
2017-07-27T15:12:58.645Z,1.60
2017-07-27T15:15:25.483Z,1.80
2017-07-27T15:17:52.329Z,1.47
2017-07-27T15:20:19.255Z,1.70
2017-07-27T15:22:46.127Z,1.60
2017-07-27T15:25:13.064Z,1.50
2017-07-27T15:27:39.894Z,1.60
2017-07-27T15:30:06.815Z,1.80
2017-07-27T15:32:33.664Z,2.40
2017-07-27T15:35:01.262Z,2.00
2017-07-27T15:37:28.974Z,2.00
2017-07-27T15:39:56.879Z,1.77
2017-07-27T15:42:23.709Z,1.23
2017-07-27T15:44:50.626Z,1.47
2017-07-27T15:47:18.247Z,1.13
2017-07-27T15:49:45.183Z,1.10
2017-07-27T15:52:12.157Z,1.07
2017-07-27T15:54:39.028Z,1.00
2017-07-27T15:57:06.666Z,1.80
2017-07-27T15:59:35.738Z,1.60
2017-07-27T16:02:02.606Z,0.90
2017-07-27T16:04:29.454Z,1.53
2017-07-27T16:06:56.380Z,1.27
2017-07-27T16:09:23.220Z,1.40
2017-07-27T16:11:50.047Z,1.70
2017-07-27T16:14:16.986Z,1.97
2017-07-27T16:16:43.827Z,2.00
2017-07-27T16:19:10.738Z,1.50
2017-07-27T16:21:38.443Z,1.23
2017-07-27T16:24:05.276Z,1.70
2017-07-27T16:26:32.112Z,1.63
2017-07-27T16:29:00.089Z,1.63
2017-07-27T16:31:27.977Z,1.80
2017-07-27T16:33:55.637Z,1.63
2017-07-27T16:36:22.545Z,1.73
2017-07-27T16:38:50.173Z,2.00
2017-07-27T16:41:17.026Z,1.60
2017-07-27T16:43:43.865Z,1.73
2017-07-27T16:46:10.764Z,1.93
2017-07-27T16:48:37.773Z,2.17
2017-07-27T16:51:05.582Z,2.23
2017-07-27T16:53:32.494Z,1.87
2017-07-27T16:55:59.406Z,1.80
2017-07-27T16:58:26.373Z,2.00
2017-07-27T17:00:53.660Z,1.90
2017-07-27T17:03:20.512Z,1.70
2017-07-27T17:05:47.526Z,1.90
2017-07-27T17:08:15.085Z,1.20
2017-07-27T17:10:42.808Z,1.83
2017-07-27T17:13:09.736Z,1.40
2017-07-27T17:15:36.609Z,1.80
2017-07-27T17:18:03.539Z,1.70
2017-07-27T17:20:31.032Z,2.10
2017-07-27T17:22:57.896Z,1.93
2017-07-27T17:25:24.846Z,1.50
2017-07-27T17:27:52.500Z,1.57
2017-07-27T17:30:19.401Z,2.30
2017-07-27T17:32:47.094Z,1.70
2017-07-27T17:35:14.095Z,1.60
2017-07-27T17:37:41.143Z,1.37
2017-07-27T17:40:09.460Z,1.60
2017-07-27T17:42:36.376Z,1.60
2017-07-27T17:45:03.635Z,2.07
2017-07-27T17:47:30.614Z,1.47
2017-07-27T17:49:57.690Z,1.40
2017-07-27T17:52:25.460Z,1.87
2017-07-27T17:54:53.043Z,1.67
2017-07-27T17:57:20.740Z,1.40
2017-07-27T17:59:48.409Z,1.57
2017-07-27T18:02:15.349Z,1.70
2017-07-27T18:04:42.293Z,1.87
2017-07-27T18:07:09.200Z,1.70
2017-07-27T18:09:36.894Z,1.53
2017-07-27T18:12:04.264Z,1.87
2017-07-27T18:14:31.201Z,2.50
2017-07-27T18:16:58.164Z,2.33
2017-07-27T18:19:25.017Z,2.00
2017-07-27T18:21:51.945Z,1.60
2017-07-27T18:24:18.830Z,1.60
2017-07-27T18:26:45.660Z,1.80
2017-07-27T18:29:12.570Z,1.90
2017-07-27T18:31:39.446Z,2.10
2017-07-27T18:34:06.379Z,1.97
2017-07-27T18:36:33.276Z,1.80
2017-07-27T18:39:00.121Z,2.30
2017-07-27T18:41:27.045Z,1.73
2017-07-27T18:43:53.894Z,2.10
2017-07-27T18:46:21.470Z,2.07
2017-07-27T18:48:48.432Z,2.10
2017-07-27T18:51:15.296Z,2.30
2017-07-27T18:53:42.220Z,2.90
2017-07-27T18:56:09.063Z,1.80
2017-07-27T18:58:35.992Z,2.60
2017-07-27T19:01:02.990Z,1.87
2017-07-27T19:03:29.836Z,1.90
2017-07-27T19:05:56.749Z,2.37
2017-07-27T19:08:23.688Z,2.13
2017-07-27T19:10:50.615Z,2.23
2017-07-27T19:13:18.203Z,2.20
2017-07-27T19:16:00.768Z,2.07
2017-07-27T19:18:28.380Z,2.23
2017-07-27T19:20:55.301Z,1.87
2017-07-27T19:23:22.328Z,1.87
2017-07-27T19:25:49.176Z,2.70
2017-07-27T19:28:18.085Z,2.17
2017-07-27T19:30:45.047Z,2.00
2017-07-27T19:33:15.041Z,1.90
2017-07-27T19:35:41.972Z,1.63
2017-07-27T19:38:08.816Z,1.83
2017-07-27T19:40:36.447Z,1.70
2017-07-27T19:43:08.095Z,2.30
2017-07-27T19:45:35.073Z,2.40
2017-07-27T19:48:02.442Z,2.07
2017-07-27T19:50:31.085Z,2.20
2017-07-27T19:52:57.994Z,2.00
2017-07-27T19:55:24.985Z,1.90
2017-07-27T19:57:52.609Z,1.80
2017-07-27T20:00:20.135Z,1.87
2017-07-27T20:02:47.001Z,3.13
2017-07-27T20:05:13.831Z,1.83
2017-07-27T20:07:40.775Z,1.93
2017-07-27T20:10:07.633Z,1.43
2017-07-27T20:12:35.254Z,2.03
2017-07-27T20:15:02.196Z,1.70
2017-07-27T20:17:29.059Z,2.13
2017-07-27T20:19:55.917Z,1.63
2017-07-27T20:22:23.707Z,1.63
2017-07-27T20:24:50.686Z,2.13
2017-07-27T20:27:17.711Z,2.60
2017-07-27T20:29:44.650Z,2.30
2017-07-27T20:32:11.489Z,2.47
2017-07-27T20:34:38.319Z,2.60
2017-07-27T20:37:06.020Z,2.83
2017-07-27T20:39:32.924Z,3.80
2017-07-27T20:42:00.519Z,3.43
2017-07-27T20:44:27.423Z,3.70
2017-07-27T20:46:54.242Z,3.90
2017-07-27T20:49:21.172Z,3.83
2017-07-27T20:51:48.162Z,3.60
2017-07-27T20:54:29.225Z,3.43
2017-07-27T20:56:56.471Z,3.30
2017-07-27T20:59:23.339Z,3.13
2017-07-27T21:02:04.028Z,3.43
2017-07-27T21:04:31.746Z,4.00
2017-07-27T21:06:58.713Z,3.50
2017-07-27T21:09:25.584Z,3.57
2017-07-27T21:11:52.458Z,3.20
2017-07-27T21:14:31.079Z,3.70
2017-07-27T21:16:58.708Z,3.97
2017-07-27T21:19:41.937Z,4.27
2017-07-27T21:22:09.822Z,4.27
2017-07-27T21:24:39.551Z,4.60
2017-07-27T21:27:06.486Z,3.80
2017-07-27T21:29:33.344Z,3.70
2017-07-27T21:32:12.938Z,3.83
2017-07-27T21:34:40.230Z,3.10
2017-07-27T21:37:19.759Z,3.70
2017-07-27T21:40:01.023Z,3.03
2017-07-27T21:42:43.988Z,3.40
2017-07-27T21:45:24.254Z,2.70
2017-07-27T21:48:08.172Z,3.20
2017-07-27T21:50:48.046Z,3.20
2017-07-27T21:53:24.968Z,2.67
2017-07-27T21:56:01.061Z,2.60
2017-07-27T21:58:29.433Z,2.60
2017-07-27T22:00:56.388Z,3.10
2017-07-27T22:03:23.235Z,2.93
2017-07-27T22:05:50.203Z,3.50
2017-07-27T22:08:28.461Z,2.40
2017-07-27T22:11:09.109Z,2.57
2017-07-27T22:13:50.777Z,2.60
2017-07-27T22:16:31.368Z,2.33
2017-07-27T22:19:10.230Z,2.37
2017-07-27T22:21:49.529Z,2.20
2017-07-27T22:24:28.896Z,2.17
2017-07-27T22:27:07.551Z,1.83
2017-07-27T22:29:35.375Z,1.53
2017-07-27T22:32:03.044Z,1.90
2017-07-27T22:34:29.909Z,1.80
2017-07-27T22:36:56.861Z,1.57
2017-07-27T22:39:23.804Z,1.90
2017-07-27T22:41:50.738Z,1.80
2017-07-27T22:44:17.682Z,2.03
2017-07-27T22:46:44.627Z,1.67
2017-07-27T22:49:11.539Z,2.10
2017-07-27T22:51:38.460Z,2.13
2017-07-27T22:54:05.340Z,2.20
2017-07-27T22:56:33.060Z,2.23
2017-07-27T22:58:59.923Z,2.20
2017-07-27T23:01:26.842Z,2.47
2017-07-27T23:03:53.754Z,2.70
2017-07-27T23:06:20.628Z,2.37
2017-07-27T23:08:47.610Z,2.53
2017-07-27T23:11:14.471Z,2.23
2017-07-27T23:13:41.327Z,2.80
2017-07-27T23:16:09.001Z,2.60
2017-07-27T23:18:36.641Z,3.17
2017-07-27T23:21:03.520Z,2.03
2017-07-27T23:23:30.461Z,2.43
2017-07-27T23:25:57.331Z,2.30
2017-07-27T23:28:24.264Z,2.63
2017-07-27T23:30:51.124Z,3.20
2017-07-27T23:33:17.996Z,2.97
2017-07-27T23:35:44.919Z,3.50
2017-07-27T23:38:11.802Z,3.03
2017-07-27T23:40:38.728Z,2.77
2017-07-27T23:43:05.694Z,2.93
2017-07-27T23:45:32.583Z,3.53
2017-07-27T23:47:59.452Z,3.60
2017-07-27T23:50:26.354Z,3.50
2017-07-27T23:52:53.960Z,4.33
2017-07-27T23:55:20.932Z,2.80
2017-07-27T23:57:47.779Z,3.50
